createdAt,value
2023-02-08T00:01:44.186Z,20.53
2023-02-08T00:04:13.524Z,18.80
2023-02-08T00:06:42.770Z,20.03
2023-02-08T00:09:12.243Z,19.53
2023-02-08T00:11:41.352Z,19.17
2023-02-08T00:14:11.985Z,20.50
2023-02-08T00:16:41.200Z,19.20
2023-02-08T00:19:10.467Z,18.40
2023-02-08T00:21:39.474Z,19.33
2023-02-08T00:24:09.297Z,18.50
2023-02-08T00:26:38.314Z,18.77
2023-02-08T00:29:07.613Z,18.10
2023-02-08T00:31:38.115Z,17.48
2023-02-08T00:34:07.486Z,18.50
2023-02-08T00:36:36.483Z,17.77
2023-02-08T00:39:05.918Z,17.63
2023-02-08T00:41:35.043Z,16.30
2023-02-08T00:44:04.364Z,17.13
2023-02-08T00:46:33.552Z,17.67
2023-02-08T00:49:04.220Z,17.67
2023-02-08T00:51:33.333Z,17.08
2023-02-08T00:54:02.648Z,17.30
2023-02-08T00:56:31.700Z,16.50
2023-02-08T00:59:01.990Z,17.10
2023-02-08T01:01:31.048Z,17.53
2023-02-08T01:04:00.338Z,17.67
2023-02-08T01:06:30.681Z,16.67
2023-02-08T01:09:00.073Z,17.48
2023-02-08T01:11:29.239Z,16.60
2023-02-08T01:13:59.446Z,18.60
2023-02-08T01:16:33.077Z,18.33
2023-02-08T01:19:05.286Z,18.03
2023-02-08T01:21:41.934Z,16.83
2023-02-08T01:24:12.072Z,17.77
2023-02-08T01:26:41.019Z,16.87
2023-02-08T01:29:11.029Z,16.33
2023-02-08T01:31:43.553Z,17.92
2023-02-08T01:34:14.262Z,16.50
2023-02-08T01:36:46.873Z,16.40
2023-02-08T01:39:16.161Z,16.30
2023-02-08T01:41:47.680Z,16.63
2023-02-08T01:45:26.842Z,16.67
2023-02-08T01:48:05.400Z,16.57
2023-02-08T01:50:46.354Z,15.50
2023-02-08T01:53:16.961Z,15.60
2023-02-08T01:55:53.862Z,17.00
2023-02-08T01:58:26.277Z,16.93
2023-02-08T02:00:56.214Z,16.48
2023-02-08T02:03:26.387Z,15.87
2023-02-08T02:06:11.146Z,15.27
2023-02-08T02:08:50.704Z,16.43
2023-02-08T02:11:21.489Z,15.97
2023-02-08T02:13:52.224Z,17.20
2023-02-08T02:16:21.902Z,16.87
2023-02-08T02:18:51.115Z,15.67
2023-02-08T02:21:47.149Z,15.83
2023-02-08T02:24:56.893Z,14.90
2023-02-08T02:27:47.473Z,14.20
2023-02-08T02:31:18.789Z,14.60
2023-02-08T02:34:08.073Z,14.52
2023-02-08T02:36:51.759Z,15.17
2023-02-08T02:39:33.841Z,13.97
2023-02-08T02:42:32.414Z,13.67
2023-02-08T02:45:16.076Z,14.80
2023-02-08T02:47:57.065Z,13.07
2023-02-08T02:50:38.167Z,14.60
2023-02-08T02:53:18.814Z,14.63
2023-02-08T02:55:56.086Z,16.58
2023-02-08T02:58:30.123Z,16.67
2023-02-08T03:01:00.749Z,16.52
2023-02-08T03:03:34.794Z,15.90
2023-02-08T03:06:11.721Z,17.00
2023-02-08T03:09:26.929Z,17.57
2023-02-08T03:12:11.448Z,16.67
2023-02-08T03:14:56.978Z,16.30
2023-02-08T03:17:56.940Z,16.10
2023-02-08T03:20:33.440Z,17.20
2023-02-08T03:23:15.730Z,17.13
2023-02-08T03:25:55.115Z,17.10
2023-02-08T03:28:32.017Z,14.87
2023-02-08T03:31:13.743Z,15.63
2023-02-08T03:33:52.740Z,14.23
2023-02-08T03:36:28.676Z,14.83
2023-02-08T03:39:02.688Z,13.57
2023-02-08T03:41:39.001Z,14.20
2023-02-08T03:44:16.220Z,14.00
2023-02-08T03:46:53.939Z,13.60
2023-02-08T03:49:29.829Z,14.50
2023-02-08T03:52:03.110Z,14.30
2023-02-08T03:54:39.781Z,14.13
2023-02-08T03:57:17.769Z,14.47
2023-02-08T03:59:54.884Z,15.07
2023-02-08T04:02:29.375Z,14.90
2023-02-08T04:05:01.824Z,14.27
2023-02-08T04:07:30.849Z,14.50
2023-02-08T04:10:01.542Z,14.33
2023-02-08T04:12:30.690Z,14.43
2023-02-08T04:14:59.917Z,13.97
2023-02-08T04:17:28.925Z,14.73
2023-02-08T04:19:58.245Z,12.97
2023-02-08T04:22:27.206Z,14.50
2023-02-08T04:24:56.664Z,14.50
2023-02-08T04:27:27.137Z,14.37
2023-02-08T04:29:56.439Z,14.17
2023-02-08T04:32:25.392Z,14.80
2023-02-08T04:34:54.637Z,15.50
2023-02-08T04:37:23.820Z,14.37
2023-02-08T04:39:53.078Z,14.03
2023-02-08T04:42:22.139Z,14.90
2023-02-08T04:44:52.763Z,15.13
2023-02-08T04:47:22.051Z,14.60
2023-02-08T04:49:51.334Z,15.23
2023-02-08T04:52:20.312Z,14.73
2023-02-08T04:54:49.588Z,14.53
2023-02-08T04:57:18.539Z,16.03
2023-02-08T04:59:47.813Z,16.70
2023-02-08T05:02:18.154Z,16.60
2023-02-08T05:04:47.623Z,17.73
2023-02-08T05:07:16.667Z,16.60
2023-02-08T05:09:45.927Z,18.50
2023-02-08T05:12:14.899Z,17.73
2023-02-08T05:14:44.112Z,19.63
2023-02-08T05:17:13.133Z,19.50
2023-02-08T05:19:43.777Z,22.33
2023-02-08T05:22:12.697Z,25.97
2023-02-08T05:24:42.039Z,25.13
2023-02-08T05:27:11.088Z,25.83
2023-02-08T05:29:40.367Z,25.43
2023-02-08T05:32:09.336Z,24.30
2023-02-08T05:34:39.475Z,26.40
2023-02-08T05:37:09.868Z,24.47
2023-02-08T05:39:39.096Z,26.00
2023-02-08T05:42:08.381Z,26.90
2023-02-08T05:44:37.607Z,27.10
2023-02-08T05:47:06.789Z,26.63
2023-02-08T05:49:36.107Z,28.47
2023-02-08T05:52:05.603Z,26.10
2023-02-08T05:54:36.283Z,26.97
2023-02-08T05:57:05.471Z,28.60
2023-02-08T05:59:34.769Z,26.70
2023-02-08T06:02:03.764Z,28.43
2023-02-08T06:04:33.011Z,28.43
2023-02-08T06:07:01.952Z,31.10
2023-02-08T06:09:31.275Z,28.83
2023-02-08T06:12:01.742Z,29.50
2023-02-08T06:14:31.063Z,28.33
2023-02-08T06:17:00.468Z,28.53
2023-02-08T06:19:29.732Z,24.40
2023-02-08T06:21:58.793Z,24.17
2023-02-08T06:24:28.079Z,23.17
2023-02-08T06:26:57.929Z,22.47
2023-02-08T06:29:28.447Z,23.17
2023-02-08T06:31:57.384Z,22.63
2023-02-08T06:34:26.567Z,22.07
2023-02-08T06:36:55.410Z,21.50
2023-02-08T06:39:24.898Z,20.63
2023-02-08T06:41:53.699Z,19.87
2023-02-08T06:44:22.772Z,18.77
2023-02-08T06:46:53.419Z,18.83
2023-02-08T06:49:22.541Z,18.73
2023-02-08T06:51:51.439Z,17.33
2023-02-08T06:54:20.843Z,18.60
2023-02-08T06:56:49.722Z,18.33
2023-02-08T06:59:18.833Z,18.63
2023-02-08T07:01:47.733Z,21.90
2023-02-08T07:04:18.393Z,30.83
2023-02-08T07:06:49.891Z,38.03
2023-02-08T07:09:19.217Z,32.97
2023-02-08T07:11:48.806Z,30.57
2023-02-08T07:14:18.032Z,31.50
2023-02-08T07:16:47.385Z,32.13
2023-02-08T07:19:17.858Z,35.63
2023-02-08T07:21:46.645Z,32.57
2023-02-08T07:24:15.784Z,33.40
2023-02-08T07:26:44.644Z,35.13
2023-02-08T07:29:13.718Z,33.30
2023-02-08T07:31:42.595Z,29.77
2023-02-08T07:34:11.703Z,29.60
2023-02-08T07:36:41.883Z,29.30
2023-02-08T07:39:10.995Z,28.27
2023-02-08T07:41:39.831Z,27.33
2023-02-08T07:44:09.003Z,27.10
2023-02-08T07:46:37.918Z,26.77
2023-02-08T07:49:07.438Z,26.37
2023-02-08T07:51:36.337Z,26.60
2023-02-08T07:54:06.867Z,26.07
2023-02-08T07:56:35.827Z,30.30
2023-02-08T07:59:05.176Z,29.83
2023-02-08T08:01:34.197Z,26.17
2023-02-08T08:04:03.447Z,23.87
2023-02-08T08:06:32.286Z,25.03
2023-02-08T08:09:01.498Z,24.37
2023-02-08T08:11:31.724Z,24.07
2023-02-08T08:14:00.856Z,26.00
2023-02-08T08:16:29.718Z,25.63
2023-02-08T08:18:58.851Z,24.53
2023-02-08T08:21:27.748Z,24.30
2023-02-08T08:23:56.859Z,23.43
2023-02-08T08:26:25.668Z,24.50
2023-02-08T08:28:56.101Z,23.63
2023-02-08T08:31:25.089Z,24.93
2023-02-08T08:33:54.295Z,24.40
2023-02-08T08:36:23.125Z,25.03
2023-02-08T08:38:53.475Z,25.53
2023-02-08T08:41:23.224Z,25.50
2023-02-08T08:43:52.678Z,24.23
2023-02-08T08:46:22.940Z,24.93
2023-02-08T08:48:52.774Z,25.00
2023-02-08T08:51:21.950Z,25.40
2023-02-08T08:53:51.110Z,26.10
2023-02-08T08:56:20.494Z,26.83
2023-02-08T08:58:49.881Z,26.97
2023-02-08T09:01:18.896Z,25.43
2023-02-08T09:03:49.388Z,26.30
2023-02-08T09:06:19.076Z,25.43
2023-02-08T09:08:50.264Z,25.47
2023-02-08T09:11:20.581Z,24.07
2023-02-08T09:13:52.895Z,24.70
2023-02-08T09:16:21.948Z,24.67
2023-02-08T09:18:52.594Z,23.50
2023-02-08T09:21:26.126Z,24.80
2023-02-08T09:23:55.284Z,23.30
2023-02-08T09:26:25.221Z,24.57
2023-02-08T09:28:54.594Z,24.45
2023-02-08T09:31:26.786Z,24.30
2023-02-08T09:34:01.410Z,23.23
2023-02-08T09:36:33.628Z,24.13
2023-02-08T09:39:08.206Z,24.17
2023-02-08T09:42:16.605Z,24.10
2023-02-08T09:45:17.162Z,24.60
2023-02-08T09:47:51.963Z,24.27
2023-02-08T09:50:32.812Z,25.55
2023-02-08T09:53:12.531Z,26.00
2023-02-08T09:55:47.370Z,25.27
2023-02-08T09:58:28.208Z,27.47
2023-02-08T10:00:58.519Z,26.13
2023-02-08T10:03:37.246Z,25.60
2023-02-08T10:06:12.619Z,25.10
2023-02-08T10:08:44.492Z,24.30
2023-02-08T10:11:43.418Z,24.10
2023-02-08T10:14:38.345Z,24.40
2023-02-08T10:17:31.769Z,24.70
2023-02-08T10:20:18.536Z,23.80
2023-02-08T10:23:06.578Z,24.47
2023-02-08T10:26:10.353Z,23.30
2023-02-08T10:29:30.423Z,23.00
2023-02-08T10:32:26.258Z,21.73
2023-02-08T10:35:01.564Z,21.37
2023-02-08T10:37:34.980Z,22.15
2023-02-08T10:40:32.571Z,21.27
2023-02-08T10:43:16.196Z,21.30
2023-02-08T10:45:55.339Z,20.67
2023-02-08T10:48:39.580Z,20.80
2023-02-08T10:51:13.140Z,21.60
2023-02-08T10:53:41.983Z,21.97
2023-02-08T10:56:36.267Z,20.27
2023-02-08T10:59:16.595Z,21.85
2023-02-08T11:01:49.189Z,22.38
2023-02-08T11:04:19.756Z,22.60
2023-02-08T11:06:51.802Z,19.67
2023-02-08T11:09:29.128Z,19.50
2023-02-08T11:12:03.429Z,20.52
2023-02-08T11:14:47.187Z,20.63
2023-02-08T11:17:29.824Z,21.57
2023-02-08T11:20:01.073Z,14.18
2023-02-08T11:22:32.384Z,14.73
2023-02-08T11:25:05.502Z,12.77
2023-02-08T11:27:40.525Z,7.53
2023-02-08T11:30:24.634Z,4.93
2023-02-08T11:33:22.792Z,6.40
2023-02-08T11:36:14.058Z,7.88
2023-02-08T11:38:44.617Z,8.70
2023-02-08T11:41:20.045Z,9.10
2023-02-08T11:44:03.857Z,9.45
2023-02-08T11:46:37.375Z,7.27
2023-02-08T11:49:06.607Z,6.70
2023-02-08T11:51:38.701Z,6.70
2023-02-08T11:54:08.039Z,7.03
2023-02-08T11:56:36.998Z,7.82
2023-02-08T11:59:23.658Z,7.25
2023-02-08T12:01:52.662Z,6.38
2023-02-08T12:04:22.343Z,6.90
2023-02-08T12:07:21.369Z,7.03
2023-02-08T12:10:41.117Z,5.20
2023-02-08T12:13:45.518Z,5.13
2023-02-08T12:16:42.902Z,5.33
2023-02-08T12:19:58.815Z,5.20
2023-02-08T12:22:29.834Z,4.15
2023-02-08T12:25:23.342Z,3.72
2023-02-08T12:28:03.546Z,3.65
2023-02-08T12:30:36.621Z,4.03
2023-02-08T12:33:36.914Z,4.05
2023-02-08T12:36:46.376Z,5.20
2023-02-08T12:39:53.508Z,5.10
2023-02-08T12:42:49.507Z,5.65
2023-02-08T12:45:53.479Z,4.57
2023-02-08T12:49:03.777Z,3.88
2023-02-08T12:51:44.953Z,5.50
2023-02-08T12:54:23.050Z,4.43
2023-02-08T12:57:01.920Z,4.32
2023-02-08T12:59:40.699Z,4.10
2023-02-08T13:02:21.902Z,3.80
2023-02-08T13:04:59.645Z,5.90
2023-02-08T13:07:36.676Z,5.20
2023-02-08T13:10:14.603Z,5.80
2023-02-08T13:12:53.281Z,5.53
2023-02-08T13:15:31.208Z,6.65
2023-02-08T13:18:11.982Z,7.50
2023-02-08T13:20:47.143Z,6.95
2023-02-08T13:23:25.745Z,5.93
2023-02-08T13:25:59.243Z,6.03
2023-02-08T13:28:29.758Z,5.90
2023-02-08T13:31:05.352Z,5.43
2023-02-08T13:34:00.433Z,5.88
2023-02-08T13:36:36.216Z,7.10
2023-02-08T13:39:08.984Z,5.77
2023-02-08T13:41:38.665Z,8.40
2023-02-08T13:44:19.435Z,6.15
2023-02-08T13:46:51.549Z,8.25
2023-02-08T13:49:45.250Z,9.70
2023-02-08T13:52:51.592Z,8.80
2023-02-08T13:55:57.996Z,9.00
2023-02-08T13:59:01.143Z,9.77
2023-02-08T14:01:33.001Z,8.90
2023-02-08T14:04:42.147Z,7.78
2023-02-08T14:07:24.992Z,7.13
2023-02-08T14:10:10.709Z,6.93
2023-02-08T14:12:51.495Z,8.07
2023-02-08T14:15:39.346Z,8.37
2023-02-08T14:18:27.679Z,8.43
2023-02-08T14:21:06.840Z,8.50
2023-02-08T14:23:40.799Z,8.20
2023-02-08T14:26:24.226Z,8.67
2023-02-08T14:28:59.171Z,8.63
2023-02-08T14:31:41.879Z,8.25
2023-02-08T14:34:34.619Z,8.05
2023-02-08T14:37:27.219Z,8.23
2023-02-08T14:40:48.765Z,10.07
2023-02-08T14:43:37.291Z,7.95
2023-02-08T14:46:45.720Z,8.63
2023-02-08T14:49:17.046Z,9.05
2023-02-08T14:51:53.072Z,8.73
2023-02-08T14:54:33.782Z,8.85
2023-02-08T14:57:08.639Z,7.97
2023-02-08T14:59:39.999Z,9.98
2023-02-08T15:02:21.705Z,9.52
2023-02-08T15:04:50.923Z,10.03
2023-02-08T15:07:33.378Z,11.38
2023-02-08T15:10:05.449Z,11.80
2023-02-08T15:12:39.908Z,12.73
2023-02-08T15:15:27.196Z,13.70
2023-02-08T15:17:57.868Z,13.93
2023-02-08T15:20:30.037Z,13.40
2023-02-08T15:23:02.699Z,13.63
2023-02-08T15:25:34.389Z,13.50
2023-02-08T15:28:18.857Z,13.83
2023-02-08T15:30:57.932Z,13.60
2023-02-08T15:33:27.624Z,13.97
2023-02-08T15:36:06.250Z,13.30
2023-02-08T15:38:39.631Z,14.57
2023-02-08T15:41:13.148Z,13.67
2023-02-08T15:43:44.193Z,13.40
2023-02-08T15:46:24.844Z,14.53
2023-02-08T15:48:56.930Z,13.47
2023-02-08T15:51:27.492Z,16.13
2023-02-08T15:53:58.066Z,15.93
2023-02-08T15:56:38.051Z,15.63
2023-02-08T15:59:23.499Z,16.70
2023-02-08T16:01:55.260Z,15.07
2023-02-08T16:04:26.339Z,14.77
2023-02-08T16:06:59.377Z,14.40
2023-02-08T16:09:30.339Z,15.43
2023-02-08T16:12:02.416Z,14.73
2023-02-08T16:14:47.210Z,14.40
2023-02-08T16:17:38.991Z,16.20
2023-02-08T16:20:30.094Z,15.27
2023-02-08T16:23:03.671Z,14.40
2023-02-08T16:25:44.635Z,13.40
2023-02-08T16:28:28.867Z,15.13
2023-02-08T16:31:01.573Z,14.83
2023-02-08T16:33:34.931Z,15.23
2023-02-08T16:36:04.783Z,15.23
2023-02-08T16:38:36.088Z,14.77
2023-02-08T16:41:13.577Z,14.83
2023-02-08T16:43:44.717Z,16.87
2023-02-08T16:46:27.761Z,17.33
2023-02-08T16:48:59.115Z,16.57
2023-02-08T16:51:32.770Z,17.40
2023-02-08T16:54:07.469Z,23.27
2023-02-08T16:56:37.284Z,21.13
2023-02-08T16:59:06.639Z,21.57
2023-02-08T17:01:38.257Z,22.33
2023-02-08T17:04:08.555Z,22.97
2023-02-08T17:06:41.383Z,23.90
2023-02-08T17:09:14.811Z,25.10
2023-02-08T17:11:43.940Z,26.10
2023-02-08T17:14:12.873Z,26.23
2023-02-08T17:16:42.007Z,26.13
2023-02-08T17:19:18.718Z,24.63
2023-02-08T17:21:47.847Z,26.10
2023-02-08T17:24:17.404Z,25.37
2023-02-08T17:26:46.839Z,26.40
2023-02-08T17:29:15.667Z,27.43
2023-02-08T17:31:44.794Z,28.27
2023-02-08T17:34:17.620Z,28.23
2023-02-08T17:36:46.725Z,28.53
2023-02-08T17:39:16.800Z,30.93
2023-02-08T17:41:45.903Z,30.50
2023-02-08T17:44:15.243Z,27.20
2023-02-08T17:46:44.400Z,28.17
2023-02-08T17:49:16.292Z,28.17
2023-02-08T17:51:45.406Z,27.07
2023-02-08T17:54:14.982Z,27.93
2023-02-08T17:56:44.138Z,27.23
2023-02-08T17:59:13.739Z,29.77
2023-02-08T18:01:44.527Z,31.13
2023-02-08T18:04:14.831Z,29.27
2023-02-08T18:06:44.103Z,29.43
2023-02-08T18:09:12.964Z,29.80
2023-02-08T18:11:42.547Z,30.87
2023-02-08T18:14:11.456Z,29.57
2023-02-08T18:16:40.592Z,27.70
2023-02-08T18:19:09.787Z,28.47
2023-02-08T18:21:40.336Z,30.70
2023-02-08T18:24:09.278Z,30.93
2023-02-08T18:26:38.413Z,31.57
2023-02-08T18:29:07.536Z,54.93
2023-02-08T18:31:37.668Z,39.43
2023-02-08T18:34:06.588Z,31.60
2023-02-08T18:36:35.669Z,36.60
2023-02-08T18:39:05.981Z,45.13
2023-02-08T18:41:35.480Z,41.40
2023-02-08T18:44:04.329Z,37.40
2023-02-08T18:46:33.617Z,38.97
2023-02-08T18:49:02.488Z,37.03
2023-02-08T18:51:31.894Z,35.43
2023-02-08T18:54:00.891Z,38.60
2023-02-08T18:56:32.464Z,41.03
2023-02-08T18:59:01.737Z,40.67
2023-02-08T19:01:30.982Z,42.13
2023-02-08T19:04:00.700Z,37.13
2023-02-08T19:06:31.719Z,35.73
2023-02-08T19:09:05.110Z,37.40
2023-02-08T19:11:38.910Z,38.53
2023-02-08T19:14:12.284Z,34.90
2023-02-08T19:16:43.983Z,37.57
2023-02-08T19:19:13.417Z,36.30
2023-02-08T19:21:42.325Z,33.60
2023-02-08T19:24:15.385Z,33.17
2023-02-08T19:26:45.804Z,33.73
2023-02-08T19:29:17.809Z,33.43
2023-02-08T19:31:48.230Z,35.00
2023-02-08T19:34:20.308Z,34.57
2023-02-08T19:36:53.397Z,36.33
2023-02-08T19:39:25.602Z,37.53
2023-02-08T19:41:58.653Z,38.70
2023-02-08T19:44:30.474Z,34.87
2023-02-08T19:47:00.366Z,34.20
2023-02-08T19:49:29.674Z,31.67
2023-02-08T19:51:58.924Z,32.90
2023-02-08T19:54:28.058Z,33.30
2023-02-08T19:56:58.272Z,33.83
2023-02-08T19:59:34.222Z,35.53
2023-02-08T20:02:06.275Z,35.07
2023-02-08T20:04:35.509Z,34.77
2023-02-08T20:07:05.355Z,35.00
2023-02-08T20:09:35.260Z,34.90
2023-02-08T20:12:06.357Z,37.57
2023-02-08T20:14:35.499Z,39.70
2023-02-08T20:17:05.167Z,40.47
2023-02-08T20:19:38.031Z,44.20
2023-02-08T20:22:07.346Z,45.33
2023-02-08T20:24:36.410Z,45.13
2023-02-08T20:27:06.676Z,47.90
2023-02-08T20:29:36.052Z,48.20
2023-02-08T20:32:05.296Z,50.50
2023-02-08T20:34:34.662Z,58.00
2023-02-08T20:37:07.815Z,59.30
2023-02-08T20:39:38.488Z,57.77
2023-02-08T20:42:09.940Z,60.80
2023-02-08T20:44:39.100Z,58.67
2023-02-08T20:47:09.007Z,61.13
2023-02-08T20:49:40.090Z,61.43
2023-02-08T20:52:08.989Z,61.90
2023-02-08T20:54:39.158Z,63.40
2023-02-08T20:57:13.690Z,62.63
2023-02-08T20:59:43.509Z,61.90
2023-02-08T21:02:19.305Z,57.83
2023-02-08T21:04:48.814Z,59.93
2023-02-08T21:07:18.582Z,58.80
2023-02-08T21:09:48.051Z,54.20
2023-02-08T21:12:18.675Z,54.10
2023-02-08T21:14:47.855Z,55.67
2023-02-08T21:17:16.851Z,53.50
2023-02-08T21:19:47.658Z,53.33
2023-02-08T21:22:17.160Z,52.70
2023-02-08T21:24:46.292Z,50.30
2023-02-08T21:27:15.359Z,50.03
2023-02-08T21:29:46.392Z,50.60
2023-02-08T21:32:18.821Z,49.60
2023-02-08T21:34:50.047Z,52.57
2023-02-08T21:37:19.250Z,50.83
2023-02-08T21:39:48.422Z,51.67
2023-02-08T21:42:17.290Z,52.03
2023-02-08T21:44:47.801Z,52.23
2023-02-08T21:47:16.614Z,48.43
2023-02-08T21:50:05.359Z,50.10
2023-02-08T21:52:51.630Z,51.27
2023-02-08T21:55:20.932Z,52.23
2023-02-08T21:57:49.752Z,54.50
2023-02-08T22:00:20.449Z,59.97
2023-02-08T22:02:49.344Z,58.20
2023-02-08T22:05:20.553Z,60.03
2023-02-08T22:07:54.315Z,60.57
2023-02-08T22:10:27.011Z,60.47
2023-02-08T22:12:57.272Z,61.97
2023-02-08T22:15:30.751Z,65.33
2023-02-08T22:18:05.539Z,65.63
2023-02-08T22:20:34.656Z,66.73
2023-02-08T22:23:03.559Z,66.63
2023-02-08T22:25:32.960Z,66.20
2023-02-08T22:28:01.780Z,64.13
2023-02-08T22:30:32.624Z,65.17
2023-02-08T22:33:01.479Z,66.80
2023-02-08T22:35:30.965Z,65.57
2023-02-08T22:37:59.763Z,64.60
2023-02-08T22:40:28.969Z,65.23
2023-02-08T22:42:57.892Z,64.07
2023-02-08T22:45:27.122Z,64.50
2023-02-08T22:47:57.289Z,65.17
2023-02-08T22:50:26.363Z,60.13
2023-02-08T22:52:55.140Z,65.23
2023-02-08T22:55:24.341Z,61.83
2023-02-08T22:57:53.157Z,63.33
2023-02-08T23:00:22.660Z,62.80
2023-02-08T23:02:51.579Z,62.40
2023-02-08T23:05:22.164Z,60.40
2023-02-08T23:07:51.041Z,58.83
2023-02-08T23:10:20.271Z,57.60
2023-02-08T23:12:49.040Z,56.10
2023-02-08T23:15:18.564Z,56.37
2023-02-08T23:17:47.324Z,54.87
2023-02-08T23:20:16.489Z,55.47
2023-02-08T23:22:46.682Z,55.67
2023-02-08T23:25:15.867Z,54.73
2023-02-08T23:27:44.736Z,52.37
2023-02-08T23:30:14.538Z,52.63
2023-02-08T23:32:43.705Z,52.03
2023-02-08T23:35:13.300Z,49.70
2023-02-08T23:37:42.108Z,49.43
2023-02-08T23:40:14.027Z,66.23
2023-02-08T23:42:42.854Z,55.80
2023-02-08T23:45:12.142Z,63.20
2023-02-08T23:47:41.203Z,58.73
2023-02-08T23:50:12.219Z,51.53
2023-02-08T23:52:41.041Z,46.53
2023-02-08T23:55:12.237Z,47.43
2023-02-08T23:57:41.103Z,42.77
